CheckWX is a tool to help pilots better visualize weather data.  It is not intended as a substitute for an official pre-flight weather briefing.

02:30:38 UTC

LFSI TAF
Saint-Dizier-Robinson (BA 113) Air Base Airport
Saint-Dizier/Robinson, France
TAF LFSI 222000Z 2221/2321 04005KT CAVOK TEMPO 2314/2321 4000 -SHRA BKN030TCU

Apr-22@
21:00 UTC

Apr-22 @ 21:00 UTC

Apr-23@
21:00 UTC

Apr-23 @ 21:00 UTC

TAF LFSI 222000Z 2221/2321 04005KT CAVOK
Wind
  • 040° at 5 KTS
Conditions
No significant weather
Cloud Levels
  • No significant clouds

Apr-23@
14:00 UTC

Apr-23 @ 14:00 UTC

Apr-23@
21:00 UTC

Apr-23 @ 21:00 UTC

TEMPO 2314/2321 4000 -SHRA BKN030TCU

Temporary

Temporary Changes expected for less than half the time period

Conditions
Light Rain
Cloud Levels
  • Broken at 3,000' AGL